createdAt,value
2023-04-25T00:07:10.401Z,-51
2023-04-25T00:17:16.447Z,-51
2023-04-25T00:27:22.515Z,-47
2023-04-25T00:37:28.549Z,-48
2023-04-25T00:47:34.617Z,-49
2023-04-25T00:57:40.602Z,-51
2023-04-25T01:07:46.638Z,-47
2023-04-25T01:17:52.691Z,-49
2023-04-25T01:27:58.734Z,-51
2023-04-25T01:38:04.787Z,-49
2023-04-25T01:48:10.881Z,-51
2023-04-25T01:58:16.861Z,-49
2023-04-25T02:08:22.932Z,-48
2023-04-25T02:18:28.981Z,-51
2023-04-25T02:28:34.987Z,-48
2023-04-25T02:38:41.072Z,-51
2023-04-25T02:48:47.107Z,-48
2023-04-25T02:58:53.144Z,-49
2023-04-25T03:08:59.175Z,-48
2023-04-25T03:19:05.202Z,-51
2023-04-25T03:29:11.249Z,-51
2023-04-25T03:39:17.314Z,-53
2023-04-25T03:59:29.399Z,-59
2023-04-25T04:09:35.431Z,-71
2023-04-25T04:19:41.475Z,-69
2023-04-25T04:29:47.510Z,-60
2023-04-25T04:39:53.541Z,-54
2023-04-25T04:49:59.595Z,-60
2023-04-25T05:00:05.642Z,-60
2023-04-25T05:10:11.702Z,-65
2023-04-25T05:20:17.752Z,-60
2023-04-25T05:30:23.763Z,-60
2023-04-25T05:40:29.799Z,-67
2023-04-25T05:50:35.858Z,-55
2023-04-25T06:00:41.868Z,-53
2023-04-25T06:10:47.933Z,-57
2023-04-25T06:20:53.983Z,-61
2023-04-25T06:41:06.097Z,-59
2023-04-25T06:51:12.078Z,-65
2023-04-25T07:01:18.183Z,-67
2023-04-25T07:11:24.200Z,-63
2023-04-25T07:21:30.226Z,-57
2023-04-25T07:41:42.324Z,-54
2023-04-25T07:51:48.372Z,-51
2023-04-25T08:01:54.424Z,-53
2023-04-25T08:12:00.444Z,-64
2023-04-25T08:22:06.477Z,-67
2023-04-25T08:32:12.549Z,-65
2023-04-25T08:42:18.584Z,-63
2023-04-25T08:52:24.624Z,-60
2023-04-25T09:02:30.739Z,-59
2023-04-25T09:12:36.699Z,-60
2023-04-25T09:22:42.728Z,-65
2023-04-25T09:32:48.808Z,-72
2023-04-25T09:42:54.830Z,-67
2023-04-25T09:53:00.866Z,-57
2023-04-25T10:03:06.998Z,-62
2023-04-25T10:13:12.955Z,-65
2023-04-25T10:23:20.868Z,-57
2023-04-25T10:43:32.997Z,-57
2023-04-25T10:53:38.996Z,-61
2023-04-25T11:13:51.173Z,-60
2023-04-25T11:23:57.121Z,-53
2023-04-25T11:44:09.226Z,-55
2023-04-25T11:54:15.286Z,-56
2023-04-25T12:04:21.463Z,-58
2023-04-25T12:14:27.336Z,-55
2023-04-25T12:24:33.383Z,-58
2023-04-25T12:34:39.563Z,-53
2023-04-25T12:44:45.454Z,-61
2023-04-25T12:54:51.509Z,-72
2023-04-25T13:04:57.579Z,-57
2023-04-25T13:15:03.587Z,-55
2023-04-25T13:25:09.643Z,-55
2023-04-25T13:35:15.657Z,-57
2023-04-25T13:45:21.724Z,-57
2023-04-25T13:55:27.736Z,-54
2023-04-25T14:05:33.797Z,-57
2023-04-25T14:15:39.865Z,-57
2023-04-25T14:25:45.891Z,-59
2023-04-25T14:35:52.005Z,-55
2023-04-25T14:45:58.650Z,-55
2023-04-25T14:56:03.998Z,-55
2023-04-25T15:06:10.070Z,-61
2023-04-25T15:16:16.123Z,-55
2023-04-25T15:26:22.142Z,-57
2023-04-25T15:36:28.166Z,-56
2023-04-25T15:46:34.270Z,-60
2023-04-25T15:56:40.275Z,-57
2023-04-25T16:06:46.304Z,-59
2023-04-25T16:16:52.336Z,-57
2023-04-25T16:26:58.418Z,-59
2023-04-25T16:37:04.438Z,-57
2023-04-25T16:47:11.475Z,-57
2023-04-25T16:57:16.523Z,-60
2023-04-25T17:07:22.561Z,-59
2023-04-25T17:17:28.616Z,-65
2023-04-25T17:27:34.629Z,-59
2023-04-25T17:37:40.684Z,-55
2023-04-25T17:47:46.768Z,-61
2023-04-25T17:57:52.782Z,-57
2023-04-25T18:07:58.823Z,-59
2023-04-25T18:18:04.893Z,-60
2023-04-25T18:28:10.886Z,-59
2023-04-25T18:38:21.486Z,-61
2023-04-25T18:48:23.042Z,-57
2023-04-25T19:08:35.074Z,-63
2023-04-25T19:18:41.107Z,-57
2023-04-25T19:28:47.154Z,-55
2023-04-25T19:38:53.192Z,-59
2023-04-25T19:48:59.215Z,-58
2023-04-25T19:59:05.294Z,-60
2023-04-25T20:09:11.314Z,-61
2023-04-25T20:19:17.357Z,-60
2023-04-25T20:29:23.413Z,-60
2023-04-25T20:39:29.471Z,-57
2023-04-25T20:49:35.497Z,-59
2023-04-25T20:59:41.544Z,-60
2023-04-25T21:09:47.593Z,-60
2023-04-25T21:19:53.646Z,-66
2023-04-25T21:29:59.675Z,-57
2023-04-25T21:40:05.762Z,-61
2023-04-25T21:50:11.751Z,-59
2023-04-25T22:00:17.795Z,-59
2023-04-25T22:10:23.847Z,-58
2023-04-25T22:20:29.892Z,-58
2023-04-25T22:30:35.941Z,-59
2023-04-25T22:40:42.294Z,-59
2023-04-25T22:50:48.002Z,-60
2023-04-25T23:00:54.064Z,-61
2023-04-25T23:11:00.146Z,-63
2023-04-25T23:21:06.132Z,-59
2023-04-25T23:31:12.228Z,-57
2023-04-25T23:41:18.268Z,-57
2023-04-25T23:51:24.282Z,-59
